Language selection

Features

My Weather Profile Weather Topics  | 

South Labrador Coast: Past 24 Hour Conditions

 

Banquereau - 44139

12:00 AM ADT 18 October 2019Buoy position: 44.27N 57.08W
Disclaimer

This table is a summary of hourly weather conditions for the past 24 hours.
Please note that these observations might not always be representative of weather conditions over their associated marine area.

Date / Time
(ADT)
Wind(knots) Wave height(m) Wave period(s) Pressure(kPa) Air tempC) Water tempC)
18 October 2019
0:00 SSE 8 gust 8 3.2 8.0 100.2 14 13
17 October 2019
23:00 S 8 gust 10 3.3 8.0 100.3 15 13
22:00 SW 12 gust 13 3.5 8.0 100.3 15 13
21:00 S 25 gust 31 3.4 8.0 100.1 16 13
20:00 SSE 27 gust 37 3.3 7.0 100.2 15 13
19:00 SSE 29 gust 35 3.0 7.0 100.4 15 13
18:00 SSE 31 gust 39 3.2 7.0 100.4 14 13
17:00 SE 29 gust 35 2.9 7.0 100.6 14 13
16:00 SE 23 gust 29 2.7 7.0 100.9 13 13
15:00 SSE 27 gust 35 2.6 6.0 100.9 13 13
14:00 SSE 27 gust 33 2.4 5.0 101.0 13 13
13:00 SSE 23 gust 29 2.1 5.0 101.2 13 13
12:00 SSE 23 gust 29 1.7 5.0 101.2 13 13
11:00 SSE 23 gust 27 1.6 4.0 101.3 13 13
10:00 SSE 19 gust 23 1.5 N/A 101.4 13 13
9:00 SSE 17 gust 22 1.4 4.0 101.5 13 13
8:00 SE 19 gust 23 1.4 7.0 101.5 12 13
7:00 SSE 13 gust 17 1.2 7.0 101.6 12 13
6:00 SE 13 gust 16 1.2 12.0 101.7 12 13
5:00 ESE 12 gust 16 1.2 8.0 101.7 12 13
4:00 N/A N/A N/A N/A N/A N/A
3:00 E 13 gust 16 1.2 8.0 101.8 12 13
2:00 E 12 gust 13 1.2 5.0 101.8 12 13
1:00 ENE 13 gust 16 1.3 5.0 101.8 12 13
0:00 ENE 12 gust 13 1.3 5.0 101.8 12 13

Zoom-in to make a selection

Map of Atlantic - Newfoundland marine weather areas Banquereau - 44139 Blanc-Sablon Airport Cap Whittle Chevery Natashquan Airport Heath Point Îles de la Madeleine Airport Miscou Island Eskasoni (First Nations) Grand Étang Ingonish Beach North Mountain St.Paul Island J.A. Douglas McCurdy Sydney Airport Charlottetown Airport East Point North Cape Argentia Bonavista Burgeo Cape Race Corner Brook Daniel's Harbour Englee Ferolle Point La Scie Port aux Basques Rocky Harbour Sagona Island St. Anthony Airport St. John's Int'l Airport St. Lawrence Stephenville Airport Twillingate Winterland Branch Hill Wreckhouse Grates Cove Pool's Island Marticot Island Long Pond Cartwright Airport Mary's Harbour
Legend:
buoy Buoy
land station Land Station

Atlantic - Newfoundland Area

Another Region

What we are doing

Date modified: